Flight ASXV28

  • Submitted By: Krzysztof H. Blaszkow
  • Departure Airport: Lanzarote Airport (GCRR)
  • Arrival Airport: Tenerife Norte Los Rodeo Airport (GCXO)
  • Aircraft: C 172 (LC-LXZ)
  • Flight Time: 01.56.16
  • Date Submitted: 06/27/2017
  • Status: Accepted
Flight Details
Gross Revenue:
(3 load / € 300.00 per unit
€ 900.00
Fuel Cost:
(47.1736 fuel used @ 0.45 / unit)
€ 21.23

Additional Log Information:

View Log

[19:23] - Cessna Skyhawk 172SP Paint2
[19:23] - Flight ASXV28 is ready to depart GCRR with a final destination of GCXO.
[19:23] - Parking Brake Applied
[19:23] - Beacon Light ON
[19:23] - Boarding
[19:23] - ADF1 - 310.0
[19:23] - ADF2 - 240.0
[19:23] - NAV1 - 114.40
[19:23] - NAV2 - 114.10
[19:23] - COM1 - 122.80
[19:23] - COM2 - 123.45
[19:23] - Transponder - 7000
[19:26] - Engine 1 Started
[19:26] - Navigation Lights ON 3AGL
[19:26] - Taxi Lights ON 3AGL
[19:29] - Parking Brake Released
[19:30] - Taxiing to Runway
[19:33] - Taking Off with 3 passengers on board
[19:35] - Taxi Lights OFF 3AGL
[19:35] - Landing Lights ON 3AGL
[19:35] - Strobe Lights ON 3AGL
[19:36] - Flaps to position 1
[19:36] - Take off at 89kts, with a pitch of 1deg and 232lbs of fuel on board
[19:36] - Wind Heading 17 | Wind Speed 18kts | Temperature 24 deg C
[19:36] - METAR Departure: GCRR 271800Z 36018G30KT 320V020 9999 FEW035 26/18 Q1015

[19:36] - Flaps to position 0 at 89ft and 90kts
[19:37] - Climbing to TOC
[19:39] - AutoPilot Engaged at 1539AGL
[19:39] - TOC reached
[19:39] - Cruise started
[19:43] - NAV1 - 112.90
[19:56] - Landing Lights OFF 1499AGL
[20:14] - ADF1 - 420.0
[20:15] - NAV2 - 112.90
[20:17] - ADF1 - 365.0
[20:28] - Landing Lights ON 486AGL
[20:29] - AutoPilot Disengaged at 509AGL
[20:34] - Flaps to position 2 at 322ft and 104kts
[20:35] - Flaps to position 1 at 102ft and 75kts
[20:35] - Flaps to position 0 at 102ft and 76kts
[20:48] - AutoPilot Engaged at 1024AGL
[20:50] - ADF1 - 420.0
[20:51] - NAV1 - 117.70
[20:58] - NAV2 - 116.20
[21:01] - Instrument Lights ON 3012AGL
[21:02] - Instrument Lights OFF 3009AGL
[21:11] - AutoPilot Disengaged at 692AGL
[21:15] - Flaps to position 1 at 2156ft and 124kts
[21:15] - Flaps to position 2 at 2149ft and 123kts
[21:15] - Landed at -100fpm. With 130lbs of fuel onboard and a pitch angle of 1deg.
[21:15] - Wind Heading 43 | Wind Speed 10kts | Temperature 25 deg C
[21:15] - METAR Arrival: GCXO 272000Z 26003KT 230V300 CAVOK 21/17 Q1021 NOSIG

[21:15] - Flaps to position 1
[21:15] - Flaps to position 0
[21:16] - Taxiing to Gate
[21:17] - Landing Lights OFF 3AGL
[21:17] - Taxi Lights ON 3AGL
[21:17] - Strobe Lights OFF 3AGL
[21:20] - Parking Brake Applied
[21:20] - Arrived safely at GCXO. We hope you enjoyed your flight!
[21:20] - Navigation Lights OFF 3AGL
[21:20] - Instrument Lights ON 3AGL
[21:20] - Engine 1 Stopped
[21:20] - Taxi Lights OFF 3AGL
[21:21] - Cessna Skyhawk 172SP Paint2
[21:21] - MaxSim Rate: 1x
[21:21] - SiouxAcars ver: 1.0.1.2

Route Map